Time;durP1;ratioP1;P1;durP2;ratioP2;P2;SDS_P1;SDS_P2;PMS_P1;PMS_P2;Temp;Humidity;BMP_temperature;BMP_pressure;BME280_temperature;BME280_humidity;BME280_pressure;Samples;Min_cycle;Max_cycle;Signal;HPM_P1;HPM_P2
2021/12/16 00:07:42;;;;;;;19.30;12.32;;;3.80;99.90;;;;;;5073878;28;20016;-58
2021/12/16 00:34:51;;;;;;;17.80;13.07;;;3.80;99.90;;;;;;5061310;28;20036;-58
2021/12/16 00:37:18;;;;;;;18.80;12.82;;;3.80;99.90;;;;;;5090912;28;20024;-59
2021/12/16 00:39:44;;;;;;;15.82;12.20;;;3.80;99.90;;;;;;5091748;28;20398;-58
2021/12/16 00:42:24;;;;;;;18.67;11.98;;;3.80;99.90;;;;;;5090526;28;20020;-58
2021/12/16 00:50:06;;;;;;;16.20;10.52;;;3.80;99.90;;;;;;5094534;28;20407;-58
2021/12/16 00:57:49;;;;;;;13.82;11.13;;;3.80;99.90;;;;;;5094864;28;20024;-58
2021/12/16 01:00:16;;;;;;;16.17;12.27;;;3.80;99.90;;;;;;5094150;28;20406;-59
2021/12/16 01:03:49;;;;;;;16.33;11.55;;;3.80;99.90;;;;;;5094521;28;20020;-59
2021/12/16 01:35:31;;;;;;;22.85;16.35;;;3.80;99.90;;;;;;5093875;28;20233;-59
2021/12/16 01:52:29;;;;;;;22.92;16.38;;;3.80;99.90;;;;;;5091710;28;20077;-59
2021/12/16 01:59:33;;;;;;;23.13;16.80;;;3.80;99.90;;;;;;5092949;28;20021;-58
2021/12/16 02:02:11;;;;;;;24.05;17.00;;;3.80;99.90;;;;;;5092890;28;20024;-58
2021/12/16 02:04:43;;;;;;;21.02;16.67;;;3.80;99.90;;;;;;5092543;28;20035;-58
2021/12/16 02:07:26;;;;;;;22.60;16.25;;;3.70;99.90;;;;;;5073587;28;20073;-58
2021/12/16 02:09:56;;;;;;;25.10;16.48;;;3.60;99.90;;;;;;5093081;28;20093;-58
2021/12/16 02:36:44;;;;;;;17.58;12.75;;;3.50;99.90;;;;;;5093183;28;20021;-58
2021/12/16 02:39:30;;;;;;;17.23;12.35;;;3.50;99.90;;;;;;5092308;28;20057;-58
2021/12/16 02:42:13;;;;;;;21.48;14.68;;;3.50;99.90;;;;;;5092599;28;20016;-58
2021/12/16 02:48:29;;;;;;;21.70;14.50;;;3.50;99.90;;;;;;5093135;28;20081;-59
2021/12/16 02:50:12;;;;;;;20.98;13.98;;;3.50;99.90;;;;;;5092257;28;20554;-59
2021/12/16 02:52:38;;;;;;;22.05;15.35;;;3.50;99.90;;;;;;5092865;28;20024;-58
2021/12/16 02:55:07;;;;;;;27.95;17.10;;;3.50;99.90;;;;;;5093008;28;20024;-58
2021/12/16 02:57:39;;;;;;;23.25;16.90;;;3.50;99.90;;;;;;5093038;28;20085;-58
2021/12/16 03:00:11;;;;;;;24.92;16.15;;;3.60;99.90;;;;;;5093140;28;20108;-59
2021/12/16 03:02:37;;;;;;;19.40;14.73;;;3.50;99.90;;;;;;5092495;28;20016;-58
2021/12/16 03:05:03;;;;;;;21.50;16.35;;;3.50;99.90;;;;;;5091626;28;20099;-58
2021/12/16 03:07:29;;;;;;;21.75;17.00;;;3.50;99.90;;;;;;5074169;28;20032;-58
2021/12/16 03:20:33;;;;;;;24.92;17.90;;;3.50;99.90;;;;;;5091597;28;20470;-58
2021/12/16 03:23:25;;;;;;;21.10;15.43;;;3.60;99.90;;;;;;5091730;28;20041;-58
2021/12/16 03:38:58;;;;;;;21.58;15.38;;;3.60;99.90;;;;;;5091908;28;20021;-58
2021/12/16 03:41:25;;;;;;;22.73;15.60;;;3.60;99.90;;;;;;5091425;28;20391;-58
2021/12/16 03:43:52;;;;;;;19.88;15.60;;;3.60;99.90;;;;;;5090877;28;20429;-59
2021/12/16 03:46:25;;;;;;;23.60;16.50;;;3.60;99.90;;;;;;5090964;28;20108;-58
2021/12/16 03:49:17;;;;;;;;;;;3.60;99.90;;;;;;5090676;28;20020;-58
2021/12/16 03:51:43;;;;;;;23.27;17.13;;;3.60;99.90;;;;;;5085902;28;19943;-58
2021/12/16 03:54:14;;;;;;;25.50;17.83;;;3.60;99.90;;;;;;5090225;28;20074;-58
2021/12/16 03:56:41;;;;;;;29.55;18.55;;;3.50;99.90;;;;;;5071985;28;20392;-58
2021/12/16 03:59:08;;;;;;;25.23;18.25;;;3.50;99.90;;;;;;5090660;28;20024;-58
2021/12/16 04:01:35;;;;;;;24.60;17.65;;;3.50;99.90;;;;;;5090940;28;20012;-58
2021/12/16 04:04:01;;;;;;;27.52;17.83;;;3.50;99.90;;;;;;5071438;28;20032;-59
2021/12/16 04:06:31;;;;;;;24.58;17.77;;;3.50;99.90;;;;;;5071815;28;20487;-59
2021/12/16 04:08:57;;;;;;;24.95;17.67;;;3.50;99.90;;;;;;5090244;28;20542;-58
2021/12/16 04:11:41;;;;;;;24.35;16.77;;;3.40;99.90;;;;;;5090010;28;20032;-59
2021/12/16 04:14:08;;;;;;;;;;;3.40;99.90;;;;;;5090413;28;20035;-58
2021/12/16 04:16:39;;;;;;;18.15;13.07;;;3.50;99.90;;;;;;5089915;28;19923;-58
2021/12/16 04:19:13;;;;;;;21.23;16.48;;;3.50;99.90;;;;;;5089999;28;20065;-58
2021/12/16 04:21:41;;;;;;;22.23;16.33;;;3.50;99.90;;;;;;5090627;28;20024;-58
2021/12/16 04:24:08;;;;;;;26.58;17.30;;;3.40;99.90;;;;;;5090717;28;20062;-58
2021/12/16 04:26:34;;;;;;;25.48;17.45;;;3.40;99.90;;;;;;5090821;28;20491;-59
2021/12/16 04:29:00;;;;;;;24.55;18.02;;;3.40;99.90;;;;;;5090469;28;20119;-59
2021/12/16 04:31:26;;;;;;;25.77;18.48;;;3.40;99.90;;;;;;5090675;28;20153;-59
2021/12/16 04:33:52;;;;;;;27.05;18.88;;;3.40;99.90;;;;;;5090645;28;20016;-58
2021/12/16 04:36:18;;;;;;;25.58;17.38;;;3.40;99.90;;;;;;5090365;28;20149;-59
2021/12/16 04:38:46;;;;;;;27.55;18.33;;;3.40;99.90;;;;;;5072228;28;20042;-58
2021/12/16 04:41:13;;;;;;;27.73;19.48;;;3.40;99.90;;;;;;5090410;28;20026;-58
2021/12/16 04:43:45;;;;;;;25.85;17.83;;;3.40;99.90;;;;;;5090960;28;20546;-58
2021/12/16 04:46:14;;;;;;;27.85;18.15;;;3.40;99.90;;;;;;5091473;28;20559;-58
2021/12/16 04:48:43;;;;;;;28.65;19.10;;;3.50;99.90;;;;;;5091306;28;20032;-58
2021/12/16 04:51:09;;;;;;;27.25;18.17;;;3.50;99.90;;;;;;5090830;28;20381;-58
2021/12/16 04:53:37;;;;;;;23.92;18.13;;;3.50;99.90;;;;;;5090154;28;20028;-58
2021/12/16 04:56:06;;;;;;;23.05;16.95;;;3.50;99.90;;;;;;5089786;28;20437;-59
2021/12/16 04:58:32;;;;;;;29.77;19.63;;;3.50;99.90;;;;;;5072241;28;20024;-58
2021/12/16 05:00:58;;;;;;;25.58;17.73;;;3.50;99.90;;;;;;5091162;28;20025;-59
2021/12/16 05:03:25;;;;;;;24.63;18.45;;;3.60;99.90;;;;;;5091050;28;20016;-59
2021/12/16 05:05:52;;;;;;;23.90;16.55;;;3.60;99.90;;;;;;5090280;28;20024;-58
2021/12/16 05:08:18;;;;;;;23.73;16.63;;;3.60;99.90;;;;;;5089975;28;20020;-58
2021/12/16 05:10:46;;;;;;;28.10;18.05;;;3.60;99.90;;;;;;5089933;28;20059;-58
2021/12/16 05:13:12;;;;;;;23.33;16.63;;;3.60;99.90;;;;;;5089419;28;20055;-59
2021/12/16 05:15:41;;;;;;;24.27;17.70;;;3.50;99.90;;;;;;5090767;28;20397;-59
2021/12/16 05:18:10;;;;;;;23.90;17.50;;;3.50;99.90;;;;;;5088547;28;20107;-58
2021/12/16 05:20:43;;;;;;;29.50;19.13;;;3.50;99.90;;;;;;5088913;28;20032;-58
2021/12/16 05:28:37;;;;;;;31.77;20.90;;;3.40;99.90;;;;;;5088958;28;20122;-58
2021/12/16 05:31:03;;;;;;;28.98;19.35;;;3.40;99.90;;;;;;5072555;28;20020;-59
2021/12/16 05:33:29;;;;;;;43.70;26.13;;;3.40;99.90;;;;;;5093563;28;20023;-58
2021/12/16 05:35:56;;;;;;;36.58;24.23;;;3.40;99.90;;;;;;5093858;28;20198;-59
2021/12/16 05:38:24;;;;;;;50.50;27.95;;;3.30;99.90;;;;;;5093543;28;20085;-59
2021/12/16 05:40:50;;;;;;;31.20;20.80;;;3.40;99.90;;;;;;5093886;28;20028;-59
2021/12/16 05:43:21;;;;;;;49.55;29.98;;;3.40;99.90;;;;;;5093134;28;20051;-59
2021/12/16 05:45:47;;;;;;;37.58;23.92;;;3.40;99.90;;;;;;5092053;28;20410;-59
2021/12/16 05:48:34;;;;;;;37.28;22.73;;;3.40;99.90;;;;;;5092152;28;20052;-59
2021/12/16 05:51:06;;;;;;;30.58;19.90;;;3.40;99.90;;;;;;5091892;28;20043;-59
2021/12/16 05:53:33;;;;;;;79.85;37.50;;;3.40;99.90;;;;;;5091792;28;20042;-59
2021/12/16 05:55:59;;;;;;;64.82;31.40;;;3.30;99.90;;;;;;5091756;28;20440;-59
2021/12/16 05:58:25;;;;;;;57.88;30.10;;;3.40;99.90;;;;;;5091887;28;20028;-59
2021/12/16 06:00:58;;;;;;;44.00;26.88;;;3.30;99.90;;;;;;5092491;28;20435;-58
2021/12/16 06:03:24;;;;;;;;;;;3.40;99.90;;;;;;5093625;28;20027;-59
2021/12/16 06:05:52;;;;;;;32.33;21.27;;;3.40;99.90;;;;;;5075009;28;19908;-59
2021/12/16 06:08:17;;;;;;;73.03;35.15;;;3.50;99.90;;;;;;5092709;28;20024;-59
2021/12/16 06:13:33;;;;;;;34.22;21.48;;;3.40;99.90;;;;;;5092728;28;20048;-59
2021/12/16 06:29:26;;;;;;;68.40;33.50;;;3.50;99.90;;;;;;5092738;28;20476;-59
2021/12/16 06:31:53;;;;;;;59.95;28.00;;;3.40;99.90;;;;;;5092578;28;20032;-59
2021/12/16 06:34:19;;;;;;;33.90;20.65;;;3.40;99.90;;;;;;5092502;28;20028;-59
2021/12/16 06:36:45;;;;;;;30.45;19.95;;;3.50;99.90;;;;;;5092522;28;20020;-59
2021/12/16 06:39:26;;;;;;;30.85;20.58;;;3.40;99.90;;;;;;5092593;28;20505;-59
2021/12/16 06:41:52;;;;;;;28.05;18.85;;;3.40;99.90;;;;;;5092701;28;20304;-58
2021/12/16 06:44:42;;;;;;;29.77;18.60;;;3.50;99.90;;;;;;5073245;28;20027;-57
2021/12/16 06:47:11;;;;;;;34.97;20.27;;;3.60;99.90;;;;;;5091968;28;20028;-59
2021/12/16 06:49:40;;;;;;;32.55;20.95;;;3.50;99.90;;;;;;5073921;28;20036;-58
2021/12/16 06:52:08;;;;;;;33.60;20.88;;;3.40;99.90;;;;;;5091774;28;20486;-58
2021/12/16 06:57:43;;;;;;;26.35;17.65;;;3.40;99.90;;;;;;5049810;28;20446;-58
2021/12/16 07:00:21;;;;;;;26.20;18.02;;;3.40;99.90;;;;;;5092153;28;20099;-59
2021/12/16 07:03:05;;;;;;;27.38;18.20;;;3.50;99.90;;;;;;5092440;28;20024;-58
2021/12/16 07:05:39;;;;;;;30.05;16.77;;;3.50;99.90;;;;;;5091961;28;20081;-58
2021/12/16 07:08:12;;;;;;;25.33;16.95;;;3.50;99.90;;;;;;5092075;28;20429;-58
2021/12/16 07:10:39;;;;;;;29.00;18.17;;;3.50;99.90;;;;;;5091972;28;20020;-58
2021/12/16 07:13:15;;;;;;;25.50;17.50;;;3.50;99.90;;;;;;5091355;28;20028;-58
2021/12/16 07:15:41;;;;;;;31.13;21.52;;;3.50;99.90;;;;;;5091565;28;20445;-58
2021/12/16 07:18:07;;;;;;;33.97;22.50;;;3.50;99.90;;;;;;5091997;28;20434;-58
2021/12/16 07:20:34;;;;;;;29.20;19.10;;;3.50;99.90;;;;;;5092584;28;20024;-58
2021/12/16 07:23:03;;;;;;;26.23;19.33;;;3.50;99.90;;;;;;5091196;28;20047;-58
2021/12/16 07:25:30;;;;;;;26.70;17.70;;;3.40;99.90;;;;;;5073240;28;20024;-58
2021/12/16 07:27:55;;;;;;;27.52;18.27;;;3.40;99.90;;;;;;5091617;28;20032;-58
2021/12/16 07:30:23;;;;;;;21.10;15.95;;;3.40;99.90;;;;;;5091308;28;20024;-58
2021/12/16 07:32:49;;;;;;;23.60;15.98;;;3.40;99.90;;;;;;5091428;28;20041;-58
2021/12/16 07:35:20;;;;;;;25.33;16.33;;;3.40;99.90;;;;;;5091253;28;20031;-58
2021/12/16 07:37:47;;;;;;;24.25;16.75;;;3.50;99.90;;;;;;5091205;28;20050;-58
2021/12/16 07:40:16;;;;;;;33.65;20.17;;;3.50;99.90;;;;;;5091409;28;20444;-58
2021/12/16 07:42:49;;;;;;;37.38;21.65;;;3.50;99.90;;;;;;5091285;28;20023;-58
2021/12/16 07:45:17;;;;;;;46.25;26.77;;;3.50;99.90;;;;;;5091101;28;20407;-58
2021/12/16 07:47:44;;;;;;;29.45;19.90;;;3.60;99.90;;;;;;5091209;28;20026;-58
2021/12/16 07:50:12;;;;;;;31.15;20.08;;;3.70;99.90;;;;;;5080705;28;20104;-58
2021/12/16 07:52:40;;;;;;;31.92;18.90;;;3.70;99.90;;;;;;5084975;28;20047;-58
2021/12/16 07:55:07;;;;;;;32.00;18.98;;;3.70;99.90;;;;;;5089834;28;20012;-59
2021/12/16 07:57:33;;;;;;;36.72;22.65;;;3.70;99.90;;;;;;5090967;28;20535;-58
2021/12/16 07:59:59;;;;;;;26.83;17.75;;;3.60;99.90;;;;;;5090672;28;20024;-59
2021/12/16 08:02:25;;;;;;;28.00;18.20;;;3.70;99.90;;;;;;5090882;28;20069;-58
2021/12/16 08:04:52;;;;;;;26.98;17.55;;;3.80;99.90;;;;;;5090919;28;20031;-58
2021/12/16 08:07:20;;;;;;;30.08;19.75;;;3.90;99.90;;;;;;5090715;28;20016;-58
2021/12/16 08:09:48;;;;;;;35.22;20.63;;;3.90;99.90;;;;;;5090921;28;20024;-59
2021/12/16 08:12:15;;;;;;;35.70;20.10;;;3.90;99.90;;;;;;5090468;28;20433;-58
2021/12/16 08:14:43;;;;;;;28.40;18.15;;;4.00;99.90;;;;;;5090594;28;20372;-59
2021/12/16 08:17:09;;;;;;;23.92;16.08;;;4.10;99.90;;;;;;5089959;28;20048;-58
2021/12/16 08:19:35;;;;;;;28.75;16.67;;;4.10;99.90;;;;;;5090436;28;20093;-58
2021/12/16 08:22:01;;;;;;;24.67;17.00;;;4.20;99.90;;;;;;5087939;28;20432;-59
2021/12/16 08:24:27;;;;;;;30.65;18.80;;;4.20;99.90;;;;;;5090649;28;20026;-58
2021/12/16 08:26:56;;;;;;;27.27;15.35;;;4.20;99.90;;;;;;5090681;28;20487;-59
2021/12/16 08:29:23;;;;;;;27.15;17.77;;;4.30;99.90;;;;;;5090368;28;20028;-58
2021/12/16 08:31:48;;;;;;;25.25;16.73;;;4.40;99.90;;;;;;5090644;28;20016;-59
2021/12/16 08:34:16;;;;;;;28.75;18.73;;;4.40;99.90;;;;;;5090424;28;20020;-59
2021/12/16 08:36:42;;;;;;;20.95;14.93;;;4.50;99.90;;;;;;5090586;28;20020;-58
2021/12/16 08:39:09;;;;;;;24.33;16.27;;;4.60;99.90;;;;;;5090425;28;20063;-59
2021/12/16 08:41:47;;;;;;;20.80;14.82;;;4.80;99.90;;;;;;5090501;28;20074;-59
2021/12/16 08:44:13;;;;;;;19.55;14.65;;;4.80;99.90;;;;;;5090372;28;20030;-59
2021/12/16 08:46:42;;;;;;;18.77;13.13;;;4.80;99.90;;;;;;5090531;28;20024;-58
2021/12/16 08:49:09;;;;;;;26.27;16.23;;;4.80;99.90;;;;;;5090264;28;20488;-58
2021/12/16 08:51:43;;;;;;;19.27;14.93;;;4.70;99.90;;;;;;5090341;28;20410;-58
2021/12/16 08:54:10;;;;;;;14.63;11.93;;;4.70;99.90;;;;;;5090144;28;21125;-58
2021/12/16 08:56:37;;;;;;;15.23;12.55;;;4.70;99.90;;;;;;5090428;28;20027;-59
2021/12/16 08:59:04;;;;;;;16.98;12.88;;;5.00;99.90;;;;;;5090303;28;20027;-58
2021/12/16 09:01:33;;;;;;;17.15;12.07;;;5.40;99.90;;;;;;5090323;28;20475;-59
2021/12/16 09:03:59;;;;;;;13.98;10.73;;;5.60;99.90;;;;;;5090333;28;20375;-59
2021/12/16 09:06:26;;;;;;;16.58;10.38;;;5.20;99.90;;;;;;5073674;28;20024;-58
2021/12/16 09:08:53;;;;;;;17.08;12.40;;;4.90;99.90;;;;;;5094322;28;20479;-58
2021/12/16 09:11:22;;;;;;;14.43;11.02;;;4.80;99.90;;;;;;5094081;28;20350;-58
2021/12/16 09:13:56;;;;;;;13.68;10.35;;;5.00;99.90;;;;;;5094157;28;20020;-59
2021/12/16 09:16:25;;;;;;;15.82;11.13;;;5.00;99.90;;;;;;5093982;28;20105;-58
2021/12/16 09:18:51;;;;;;;13.38;9.57;;;5.00;99.90;;;;;;5093938;28;20028;-59
2021/12/16 09:21:22;;;;;;;13.57;10.07;;;4.90;99.90;;;;;;5074988;28;20048;-58
2021/12/16 09:23:48;;;;;;;13.40;9.52;;;5.10;99.90;;;;;;5094296;28;20051;-59
2021/12/16 09:26:15;;;;;;;12.57;9.80;;;5.00;99.90;;;;;;5093875;28;20024;-58
2021/12/16 09:28:42;;;;;;;11.30;9.40;;;4.90;99.90;;;;;;5093973;28;20388;-59
2021/12/16 09:31:11;;;;;;;15.52;10.25;;;4.90;99.90;;;;;;5093695;28;20108;-59
2021/12/16 09:33:42;;;;;;;11.93;9.77;;;5.10;99.90;;;;;;5093825;28;20024;-59
2021/12/16 09:36:34;;;;;;;11.63;9.30;;;5.20;99.90;;;;;;5093652;28;20024;-59
2021/12/16 09:39:00;;;;;;;12.85;10.27;;;5.30;99.90;;;;;;5093503;28;20029;-58
2021/12/16 09:41:28;;;;;;;11.10;8.52;;;5.40;99.90;;;;;;5093679;28;20028;-58
2021/12/16 09:43:56;;;;;;;11.00;8.60;;;5.40;99.90;;;;;;5093540;28;20027;-58
2021/12/16 09:46:24;;;;;;;15.13;9.80;;;5.30;99.90;;;;;;5093358;28;20039;-59
2021/12/16 09:48:51;;;;;;;11.23;8.30;;;5.20;99.90;;;;;;5093433;28;20049;-59
2021/12/16 09:51:22;;;;;;;11.65;9.00;;;5.30;99.90;;;;;;5075172;28;20114;-58
2021/12/16 09:53:51;;;;;;;15.65;10.88;;;5.30;99.90;;;;;;5093834;28;20024;-58
2021/12/16 09:56:18;;;;;;;12.75;9.20;;;5.00;99.90;;;;;;5093150;28;20054;-58
2021/12/16 09:58:46;;;;;;;14.63;10.63;;;5.10;99.90;;;;;;5093239;28;20111;-59
2021/12/16 10:01:13;;;;;;;14.00;9.95;;;5.20;99.90;;;;;;5093223;28;20020;-59
2021/12/16 10:03:43;;;;;;;12.55;9.35;;;5.30;99.90;;;;;;5093091;28;20360;-58
2021/12/16 10:06:09;;;;;;;13.20;10.80;;;5.50;99.90;;;;;;5092940;28;20024;-59
2021/12/16 10:08:35;;;;;;;15.45;10.95;;;5.30;99.90;;;;;;5093130;28;20039;-59
2021/12/16 10:11:03;;;;;;;15.52;9.85;;;5.40;99.90;;;;;;5092962;28;20024;-59
2021/12/16 10:14:00;;;;;;;12.52;9.50;;;5.20;99.90;;;;;;5093011;28;20104;-58
2021/12/16 10:19:04;;;;;;;19.70;11.20;;;5.50;99.90;;;;;;5091792;28;20119;-59
2021/12/16 10:21:30;;;;;;;20.88;12.05;;;5.50;99.90;;;;;;5092728;28;20024;-59
2021/12/16 10:23:56;;;;;;;16.10;9.68;;;5.40;99.90;;;;;;5092775;28;20050;-59
2021/12/16 10:26:24;;;;;;;9.93;8.32;;;5.60;99.90;;;;;;5092824;28;20048;-58
2021/12/16 10:28:54;;;;;;;10.95;8.38;;;5.60;99.90;;;;;;5092431;28;20032;-59
2021/12/16 10:31:24;;;;;;;10.43;8.05;;;5.70;99.90;;;;;;5092314;28;20028;-59
2021/12/16 10:33:58;;;;;;;7.47;6.30;;;5.70;99.90;;;;;;5092877;28;20024;-59
2021/12/16 10:36:25;;;;;;;;;;;5.60;99.90;;;;;;5093680;28;20023;-59
2021/12/16 10:38:56;;;;;;;13.80;10.63;;;5.50;99.90;;;;;;5092520;28;19930;-59
2021/12/16 10:41:45;;;;;;;31.55;19.13;;;5.60;99.90;;;;;;5092142;28;20016;-59
2021/12/16 10:44:17;;;;;;;7.03;5.82;;;5.60;99.90;;;;;;5091717;28;20028;-59
2021/12/16 10:47:02;;;;;;;6.25;5.53;;;5.50;99.90;;;;;;5092372;28;20012;-58
2021/12/16 10:49:31;;;;;;;6.07;5.07;;;5.80;99.90;;;;;;5075761;28;20069;-59
2021/12/16 10:52:08;;;;;;;59.38;23.52;;;5.90;99.90;;;;;;5092351;28;20047;-58
2021/12/16 10:54:37;;;;;;;13.05;6.43;;;5.80;99.90;;;;;;5074088;28;20016;-59
2021/12/16 10:57:13;;;;;;;26.95;11.82;;;5.90;99.90;;;;;;5091825;28;20020;-58
2021/12/16 10:59:45;;;;;;;31.10;16.05;;;5.90;99.90;;;;;;5092180;28;20024;-59
2021/12/16 11:02:30;;;;;;;6.60;5.90;;;5.80;99.90;;;;;;5091931;28;20055;-59
2021/12/16 11:05:00;;;;;;;64.35;31.67;;;6.00;99.90;;;;;;5091801;28;20031;-59
2021/12/16 11:07:45;;;;;;;16.58;11.00;;;6.00;99.90;;;;;;5093004;28;20071;-59
2021/12/16 11:10:29;;;;;;;32.28;15.88;;;5.70;99.90;;;;;;5092241;28;20040;-58
2021/12/16 11:13:02;;;;;;;32.53;18.73;;;5.60;99.90;;;;;;5093193;28;20024;-58
2021/12/16 11:15:31;;;;;;;10.80;7.28;;;5.50;99.90;;;;;;5091901;28;20397;-59
2021/12/16 11:18:05;;;;;;;29.25;14.43;;;5.50;99.90;;;;;;5091530;28;20436;-58
2021/12/16 11:20:53;;;;;;;35.50;16.75;;;5.70;99.90;;;;;;5091893;28;20436;-59
2021/12/16 11:23:40;;;;;;;12.52;7.43;;;5.60;99.90;;;;;;5091963;28;20629;-59
2021/12/16 11:26:15;;;;;;;8.23;5.18;;;5.70;99.90;;;;;;5091368;28;20089;-59
2021/12/16 11:28:46;;;;;;;67.43;28.75;;;5.80;99.90;;;;;;5091473;28;20020;-59
2021/12/16 11:31:32;;;;;;;6.28;4.75;;;5.80;99.90;;;;;;5091338;28;20112;-59
2021/12/16 11:34:06;;;;;;;4.00;3.58;;;6.10;99.90;;;;;;5091548;28;20432;-59
2021/12/16 11:36:37;;;;;;;9.52;6.03;;;6.20;99.90;;;;;;5092323;28;20035;-59
2021/12/16 11:39:03;;;;;;;48.60;20.60;;;6.30;99.90;;;;;;5092433;28;20592;-58
2021/12/16 11:41:39;;;;;;;4.03;3.30;;;6.10;99.90;;;;;;5092522;28;20024;-56
2021/12/16 11:47:26;;;;;;;5.28;3.90;;;5.80;99.90;;;;;;5092389;28;20073;-58
2021/12/16 11:50:01;;;;;;;23.40;10.82;;;5.90;99.90;;;;;;5092474;28;21132;-56
2021/12/16 11:52:30;;;;;;;171.10;73.88;;;5.70;99.90;;;;;;5074027;28;20035;-57
2021/12/16 11:55:00;;;;;;;18.90;11.52;;;5.70;99.90;;;;;;5092340;28;20028;-56
2021/12/16 11:57:33;;;;;;;10.65;8.88;;;5.60;99.90;;;;;;5091950;28;20111;-59
2021/12/16 12:00:09;;;;;;;20.00;17.25;;;5.40;99.90;;;;;;5092163;28;20020;-59
2021/12/16 12:02:38;;;;;;;11.20;7.55;;;5.50;99.90;;;;;;5092239;28;20020;-59
2021/12/16 12:05:25;;;;;;;8.00;6.38;;;5.60;99.90;;;;;;5091921;28;20055;-57
2021/12/16 12:08:06;;;;;;;8.02;6.25;;;5.70;99.90;;;;;;5091968;28;20035;-57
2021/12/16 12:10:58;;;;;;;19.10;13.80;;;5.70;99.90;;;;;;5091414;28;20024;-57
2021/12/16 12:13:28;;;;;;;16.00;13.02;;;5.50;99.90;;;;;;5072880;28;20078;-57
2021/12/16 12:16:00;;;;;;;10.68;7.90;;;5.30;99.90;;;;;;5091022;28;20050;-58
2021/12/16 12:18:33;;;;;;;10.05;7.43;;;5.30;99.90;;;;;;5080151;28;20039;-57
2021/12/16 12:21:20;;;;;;;13.65;7.50;;;5.50;99.90;;;;;;5060180;28;20040;-58
2021/12/16 12:23:48;;;;;;;7.40;6.57;;;5.60;99.90;;;;;;5080085;28;20031;-58
2021/12/16 12:26:16;;;;;;;10.68;7.70;;;5.70;99.90;;;;;;5079520;28;20030;-58
2021/12/16 12:28:44;;;;;;;8.70;7.30;;;5.50;99.90;;;;;;5080735;28;20111;-58
2021/12/16 12:31:11;;;;;;;8.93;7.13;;;5.60;99.90;;;;;;5080552;28;20044;-58
2021/12/16 12:33:37;;;;;;;10.13;7.78;;;5.50;99.90;;;;;;5080835;28;20524;-58
2021/12/16 12:36:04;;;;;;;9.23;7.43;;;5.70;99.90;;;;;;5080640;28;20047;-58
2021/12/16 12:38:31;;;;;;;9.15;7.00;;;5.70;99.90;;;;;;5080174;28;20035;-58
2021/12/16 12:40:57;;;;;;;11.43;7.93;;;5.70;99.90;;;;;;5079959;28;20482;-56
2021/12/16 12:43:23;;;;;;;8.68;7.78;;;5.70;99.90;;;;;;5080880;28;20032;-58
2021/12/16 12:45:49;;;;;;;10.18;8.25;;;5.70;99.90;;;;;;5079178;28;20016;-58
2021/12/16 12:48:18;;;;;;;11.55;6.95;;;5.70;99.90;;;;;;5081036;28;20375;-57
2021/12/16 12:50:47;;;;;;;9.68;7.88;;;5.70;99.90;;;;;;5080120;28;20020;-58
2021/12/16 12:53:23;;;;;;;11.55;7.43;;;5.80;99.90;;;;;;5080571;28;20074;-58
2021/12/16 12:55:54;;;;;;;11.68;8.75;;;5.70;99.90;;;;;;5080911;28;20080;-58
2021/12/16 12:58:23;;;;;;;20.95;14.35;;;5.70;99.90;;;;;;5080327;28;20077;-58
2021/12/16 13:01:03;;;;;;;10.35;7.80;;;5.80;99.90;;;;;;5080985;28;20111;-58
2021/12/16 13:03:35;;;;;;;15.20;8.68;;;5.60;99.90;;;;;;5080516;28;20110;-58
2021/12/16 13:06:05;;;;;;;10.40;6.55;;;5.90;99.90;;;;;;5079821;28;20421;-57
2021/12/16 13:08:41;;;;;;;8.82;7.18;;;5.90;99.90;;;;;;5080608;28;20484;-58
2021/12/16 13:11:14;;;;;;;8.85;7.45;;;6.00;99.90;;;;;;5079943;28;20123;-58
2021/12/16 13:14:06;;;;;;;15.50;9.50;;;5.70;99.90;;;;;;5080176;28;20074;-58
2021/12/16 13:28:47;;;;;;;9.43;7.60;;;5.70;99.90;;;;;;5090381;28;20035;-58
2021/12/16 13:31:40;;;;;;;10.90;6.25;;;5.70;99.90;;;;;;5090657;28;20421;-57
2021/12/16 13:34:33;;;;;;;7.68;5.68;;;5.70;99.90;;;;;;5089693;28;20423;-58
2021/12/16 13:37:07;;;;;;;13.00;6.85;;;5.60;99.90;;;;;;5089506;28;20399;-58
2021/12/16 13:39:40;;;;;;;;;;;5.60;99.90;;;;;;5089113;28;20088;-58
2021/12/16 13:42:15;;;;;;;9.60;5.53;;;5.60;99.90;;;;;;5089813;28;19998;-57
2021/12/16 13:45:06;;;;;;;11.30;6.35;;;5.50;99.90;;;;;;5090023;28;20027;-58
2021/12/16 14:05:22;;;;;;;7.80;6.40;;;5.60;99.90;;;;;;5081823;28;20024;-58
2021/12/16 14:07:56;;;;;;;;;;;5.60;99.90;;;;;;5093809;28;20447;-58
2021/12/16 14:10:32;;;;;;;;;;;5.50;99.90;;;;;;5093552;28;19990;-58
2021/12/16 14:16:33;;;;;;;10.25;7.05;;;5.40;99.90;;;;;;5092654;28;20055;-57
2021/12/16 14:46:45;;;;;;;16.65;11.38;;;5.10;99.90;;;;;;5092481;28;20054;-58
2021/12/16 14:49:11;;;;;;;112.68;42.25;;;5.10;99.90;;;;;;5092221;28;20020;-58
2021/12/16 14:51:37;;;;;;;12.63;10.15;;;5.00;99.90;;;;;;5092515;28;20031;-58
2021/12/16 14:54:04;;;;;;;64.68;26.63;;;5.00;99.90;;;;;;5091861;28;20055;-58
2021/12/16 14:56:33;;;;;;;81.32;32.00;;;5.00;99.90;;;;;;5092364;28;20074;-58
2021/12/16 14:59:07;;;;;;;59.42;25.75;;;5.00;99.90;;;;;;5092124;28;20441;-58
2021/12/16 15:01:42;;;;;;;55.38;23.33;;;5.00;99.90;;;;;;5073906;28;20032;-58
2021/12/16 15:04:14;;;;;;;51.58;22.75;;;5.00;99.90;;;;;;5091881;28;20024;-57
2021/12/16 15:06:47;;;;;;;24.40;13.27;;;5.00;99.90;;;;;;5092147;28;20032;-58
2021/12/16 15:09:21;;;;;;;;;;;4.90;99.90;;;;;;5092340;28;20028;-58
2021/12/16 15:39:54;;;;;;;35.88;21.23;;;4.80;99.90;;;;;;5091508;28;20028;-55
2021/12/16 15:45:34;;;;;;;29.05;15.88;;;4.80;99.90;;;;;;4989327;28;20109;-58
2021/12/16 15:48:05;;;;;;;27.58;17.50;;;4.80;99.90;;;;;;4989043;28;20549;-58
2021/12/16 15:50:37;;;;;;;15.75;9.38;;;4.70;99.90;;;;;;5044155;28;20129;-56
2021/12/16 15:53:07;;;;;;;14.40;9.68;;;4.80;99.90;;;;;;5091152;28;20028;-56
2021/12/16 15:55:47;;;;;;;14.82;9.85;;;4.90;99.90;;;;;;5091237;28;20048;-58
2021/12/16 15:58:23;;;;;;;17.48;11.93;;;4.90;99.90;;;;;;5090961;28;20069;-58
2021/12/16 16:00:56;;;;;;;13.15;9.05;;;4.80;99.90;;;;;;5072985;28;20478;-56
2021/12/16 16:03:29;;;;;;;21.30;13.60;;;4.80;99.90;;;;;;5091048;28;20123;-58
2021/12/16 16:05:59;;;;;;;14.82;10.80;;;4.80;99.90;;;;;;5090877;28;20020;-58
2021/12/16 16:08:33;;;;;;;16.05;10.20;;;4.80;99.90;;;;;;5091019;28;20089;-57
2021/12/16 16:11:05;;;;;;;13.55;9.45;;;4.80;99.90;;;;;;5072845;28;20032;-57
2021/12/16 16:13:38;;;;;;;16.38;10.50;;;4.70;99.90;;;;;;5090693;28;20022;-58
2021/12/16 16:16:06;;;;;;;16.30;10.95;;;4.80;99.90;;;;;;5090029;28;20126;-55
2021/12/16 16:18:36;;;;;;;14.13;10.40;;;4.80;99.90;;;;;;5090878;28;20107;-57
2021/12/16 16:21:21;;;;;;;18.58;11.00;;;4.80;99.90;;;;;;5090464;28;20019;-58
2021/12/16 16:23:52;;;;;;;18.25;10.50;;;4.70;99.90;;;;;;5090660;28;20103;-57
2021/12/16 16:26:18;;;;;;;16.58;10.57;;;4.70;99.90;;;;;;5090841;28;20378;-58
2021/12/16 16:28:46;;;;;;;14.52;9.60;;;4.70;99.90;;;;;;5090610;28;20024;-58
2021/12/16 16:31:23;;;;;;;13.57;11.13;;;4.80;99.90;;;;;;5072407;28;20024;-56
2021/12/16 16:33:49;;;;;;;14.95;11.20;;;4.70;99.90;;;;;;5090766;28;20048;-57
2021/12/16 16:36:19;;;;;;;32.55;21.65;;;4.70;99.90;;;;;;5090305;28;20039;-58
2021/12/16 16:38:56;;;;;;;26.42;20.20;;;4.60;99.90;;;;;;5090597;28;20105;-58
2021/12/16 16:41:28;;;;;;;15.48;11.02;;;4.60;99.90;;;;;;5090333;28;20019;-58
2021/12/16 16:44:01;;;;;;;17.13;12.07;;;4.60;99.90;;;;;;5090479;28;20030;-58
2021/12/16 16:46:35;;;;;;;21.35;14.38;;;4.60;99.90;;;;;;5090703;28;20016;-57
2021/12/16 16:49:06;;;;;;;20.75;13.15;;;4.60;99.90;;;;;;5090215;28;20036;-58
2021/12/16 16:51:40;;;;;;;16.38;11.68;;;4.60;99.90;;;;;;5090447;28;20371;-58
2021/12/16 16:54:10;;;;;;;20.33;13.23;;;4.50;99.90;;;;;;5090404;28;20020;-58
2021/12/16 16:56:58;;;;;;;22.38;13.40;;;4.60;99.90;;;;;;5090272;28;20205;-58
2021/12/16 16:59:37;;;;;;;20.63;14.15;;;4.50;99.90;;;;;;5090425;28;20463;-57
2021/12/16 17:02:14;;;;;;;19.67;12.68;;;4.50;99.90;;;;;;5090409;28;20491;-58
2021/12/16 17:04:40;;;;;;;18.73;13.20;;;4.60;99.90;;;;;;5090403;28;20016;-57
2021/12/16 17:07:07;;;;;;;20.15;13.38;;;4.70;99.90;;;;;;5090244;28;20024;-57
2021/12/16 17:09:37;;;;;;;16.90;11.80;;;4.70;99.90;;;;;;5072301;28;20021;-57
2021/12/16 17:12:10;;;;;;;21.90;14.05;;;4.70;99.90;;;;;;5089973;28;20020;-57
2021/12/16 17:14:40;;;;;;;17.52;13.07;;;4.70;99.90;;;;;;5090260;28;20020;-58
2021/12/16 17:17:23;;;;;;;14.85;10.95;;;4.60;99.90;;;;;;5090194;28;20433;-56
2021/12/16 17:19:57;;;;;;;16.92;13.15;;;4.60;99.90;;;;;;5090354;28;20339;-57
2021/12/16 17:22:29;;;;;;;19.33;14.10;;;4.60;99.90;;;;;;5090193;28;20029;-57
2021/12/16 17:24:57;;;;;;;20.80;14.35;;;4.50;99.90;;;;;;5090381;28;20055;-56
2021/12/16 17:27:24;;;;;;;19.52;13.70;;;4.50;99.90;;;;;;5092047;28;20016;-56